Newfield, New Jersey
Current Conditions -  °F | °C
As of 12:54 PM on Wednesday 28 Jan 2015 (Local Time) from KMIV Reporting Station
Clear Clear  
Wind Chill: 23°   Ceiling: Unl
Heat Index: 33°   Visibility: 10mi
Dew Point:   Wind: 16mph
Humidity: 29%   Direction: 320°NW
Pressure: 30.11"   Gusts: 25mph
Location:  39.55°N, 75.02°W
Report Text: KMIV 281754Z AUTO 32014G22KT 10SM CLR 01/M16 A3011 RMK AO2 SLP196 T00061156 10011 21067 58004
Loading
Personal Weather Stations






























Interactive Weather Map New forecast layout! Learn more

10-Day Weather Forecast

Advertisements
Track Severe Weather on mobile